createdAt,value
2022-10-16T00:01:33.138Z,2.33
2022-10-16T00:04:01.496Z,2.70
2022-10-16T00:06:29.817Z,2.58
2022-10-16T00:08:57.408Z,2.58
2022-10-16T00:11:30.251Z,2.05
2022-10-16T00:14:00.376Z,2.47
2022-10-16T00:16:29.514Z,2.30
2022-10-16T00:18:57.128Z,2.90
2022-10-16T00:21:27.896Z,2.28
2022-10-16T00:24:00.480Z,1.65
2022-10-16T00:26:30.468Z,2.00
2022-10-16T00:28:57.688Z,2.47
2022-10-16T00:31:26.063Z,2.10
2022-10-16T00:33:53.472Z,2.15
2022-10-16T00:36:23.781Z,2.60
2022-10-16T00:38:56.635Z,1.90
2022-10-16T00:41:25.844Z,2.20
2022-10-16T00:43:58.426Z,2.20
2022-10-16T00:46:43.046Z,1.92
2022-10-16T00:49:14.202Z,1.77
2022-10-16T00:51:54.841Z,2.03
2022-10-16T00:54:30.460Z,1.50
2022-10-16T00:57:04.726Z,1.70
2022-10-16T00:59:37.731Z,1.52
2022-10-16T01:02:08.131Z,1.40
2022-10-16T01:04:55.608Z,1.30
2022-10-16T01:07:41.049Z,1.30
2022-10-16T01:13:23.082Z,1.42
2022-10-16T01:16:07.802Z,1.30
2022-10-16T01:18:43.963Z,1.20
2022-10-16T01:21:29.318Z,1.67
2022-10-16T01:24:24.037Z,1.15
2022-10-16T01:27:14.124Z,0.95
2022-10-16T01:30:10.953Z,1.00
2022-10-16T01:32:42.353Z,1.27
2022-10-16T01:35:13.467Z,1.10
2022-10-16T01:37:49.585Z,1.10
2022-10-16T01:40:19.703Z,0.70
2022-10-16T01:42:54.547Z,1.10
2022-10-16T01:45:22.565Z,1.25
2022-10-16T01:47:50.987Z,1.15
2022-10-16T01:50:21.834Z,1.10
2022-10-16T01:52:54.357Z,1.00
2022-10-16T01:55:29.333Z,1.40
2022-10-16T02:00:24.486Z,0.90
2022-10-16T02:02:55.115Z,0.80
2022-10-16T02:05:32.429Z,1.10
2022-10-16T02:08:00.584Z,1.02
2022-10-16T02:10:32.848Z,0.95
2022-10-16T02:13:49.361Z,0.70
2022-10-16T02:16:16.962Z,1.00
2022-10-16T02:18:45.208Z,1.17
2022-10-16T02:21:24.273Z,0.98
2022-10-16T02:24:27.713Z,1.25
2022-10-16T02:27:11.743Z,1.00
2022-10-16T02:29:51.306Z,1.15
2022-10-16T02:32:23.216Z,1.35
2022-10-16T02:34:51.836Z,1.15
2022-10-16T02:37:20.241Z,1.10
2022-10-16T02:39:47.088Z,1.30
2022-10-16T02:42:15.286Z,1.40
2022-10-16T02:44:42.424Z,1.13
2022-10-16T02:47:09.328Z,1.10
2022-10-16T02:49:36.526Z,1.02
2022-10-16T02:52:04.169Z,1.25
2022-10-16T02:54:31.123Z,1.05
2022-10-16T02:56:58.011Z,1.20
2022-10-16T02:59:24.798Z,0.95
2022-10-16T03:01:51.729Z,1.25
2022-10-16T03:04:18.604Z,1.40
2022-10-16T03:06:45.389Z,1.45
2022-10-16T03:09:12.333Z,1.40
2022-10-16T03:11:39.176Z,1.50
2022-10-16T03:14:06.097Z,1.30
2022-10-16T03:16:33.205Z,1.50
2022-10-16T03:19:00.071Z,1.20
2022-10-16T03:21:26.851Z,1.40
2022-10-16T03:23:53.652Z,1.20
2022-10-16T03:26:20.451Z,1.70
2022-10-16T03:28:47.459Z,1.50
2022-10-16T03:31:14.235Z,1.48
2022-10-16T03:33:41.193Z,1.95
2022-10-16T03:36:07.967Z,1.25
2022-10-16T03:38:34.800Z,1.50
2022-10-16T03:41:01.744Z,1.42
2022-10-16T03:43:28.850Z,1.55
2022-10-16T03:45:55.703Z,1.40
2022-10-16T03:48:22.498Z,1.60
2022-10-16T03:50:49.532Z,1.58
2022-10-16T03:53:16.680Z,1.50
2022-10-16T03:55:44.649Z,1.65
2022-10-16T03:58:12.368Z,1.50
2022-10-16T04:00:43.929Z,1.48
2022-10-16T04:03:12.014Z,1.83
2022-10-16T04:05:38.984Z,1.85
2022-10-16T04:08:05.800Z,1.15
2022-10-16T04:10:33.086Z,1.10
2022-10-16T04:12:59.920Z,1.60
2022-10-16T04:15:27.347Z,2.08
2022-10-16T04:17:54.337Z,1.50
2022-10-16T04:20:21.368Z,1.75
2022-10-16T04:22:48.373Z,1.60
2022-10-16T04:25:15.303Z,1.50
2022-10-16T04:27:45.188Z,1.38
2022-10-16T04:30:13.417Z,1.23
2022-10-16T04:32:40.930Z,1.60
2022-10-16T04:35:08.608Z,1.33
2022-10-16T04:37:35.715Z,1.38
2022-10-16T04:40:02.520Z,1.88
2022-10-16T04:42:29.384Z,1.25
2022-10-16T04:44:56.232Z,1.58
2022-10-16T04:47:23.122Z,1.80
2022-10-16T04:49:49.929Z,1.15
2022-10-16T04:52:17.353Z,1.70
2022-10-16T04:54:46.256Z,1.40
2022-10-16T04:57:13.369Z,1.60
2022-10-16T04:59:40.155Z,1.40
2022-10-16T05:02:07.022Z,1.63
2022-10-16T05:04:33.835Z,1.38
2022-10-16T05:07:00.669Z,1.27
2022-10-16T05:09:27.755Z,1.10
2022-10-16T05:11:54.564Z,1.20
2022-10-16T05:14:21.344Z,1.35
2022-10-16T05:16:49.373Z,2.25
2022-10-16T05:19:26.808Z,1.52
2022-10-16T05:21:54.954Z,1.50
2022-10-16T05:24:21.762Z,1.30
2022-10-16T05:26:48.999Z,1.50
2022-10-16T05:29:15.761Z,1.17
2022-10-16T05:31:42.585Z,1.30
2022-10-16T05:34:09.466Z,0.88
2022-10-16T05:36:36.292Z,1.25
2022-10-16T05:39:03.939Z,1.27
2022-10-16T05:41:30.752Z,1.08
2022-10-16T05:43:57.500Z,1.02
2022-10-16T05:46:24.584Z,1.40
2022-10-16T05:48:54.409Z,0.90
2022-10-16T05:51:21.459Z,0.90
2022-10-16T05:53:48.692Z,1.05
2022-10-16T05:56:15.744Z,1.48
2022-10-16T05:58:43.260Z,0.93
2022-10-16T06:01:17.322Z,0.98
2022-10-16T06:03:44.710Z,0.57
2022-10-16T06:06:15.239Z,1.00
2022-10-16T06:08:44.622Z,1.30
2022-10-16T06:11:25.428Z,1.23
2022-10-16T06:14:02.921Z,1.40
2022-10-16T06:16:30.440Z,1.25
2022-10-16T06:18:57.660Z,1.45
2022-10-16T06:21:26.368Z,1.13
2022-10-16T06:23:54.074Z,1.67
2022-10-16T06:26:24.785Z,1.45
2022-10-16T06:28:51.681Z,1.80
2022-10-16T06:31:19.125Z,1.50
2022-10-16T06:33:48.075Z,1.73
2022-10-16T06:36:19.101Z,1.40
2022-10-16T06:38:45.981Z,1.30
2022-10-16T06:41:19.343Z,1.50
2022-10-16T06:43:47.161Z,1.80
2022-10-16T06:46:16.907Z,1.50
2022-10-16T06:48:44.345Z,1.80
2022-10-16T06:51:16.409Z,1.45
2022-10-16T06:54:06.128Z,1.58
2022-10-16T06:56:34.485Z,1.58
2022-10-16T06:59:01.679Z,1.65
2022-10-16T07:01:29.150Z,2.08
2022-10-16T07:03:56.042Z,1.60
2022-10-16T07:06:26.269Z,1.80
2022-10-16T07:08:53.673Z,1.52
2022-10-16T07:11:24.395Z,1.80
2022-10-16T07:13:55.099Z,1.83
2022-10-16T07:16:27.819Z,1.83
2022-10-16T07:19:00.769Z,1.80
2022-10-16T07:21:37.427Z,1.75
2022-10-16T07:24:07.693Z,1.55
2022-10-16T07:26:37.839Z,2.05
2022-10-16T07:29:05.042Z,1.40
2022-10-16T07:31:32.343Z,1.92
2022-10-16T07:34:01.284Z,2.00
2022-10-16T07:36:28.322Z,1.70
2022-10-16T07:38:58.644Z,1.90
2022-10-16T07:41:28.412Z,2.33
2022-10-16T07:43:57.576Z,2.08
2022-10-16T07:46:24.818Z,1.50
2022-10-16T07:48:52.008Z,1.70
2022-10-16T07:51:23.205Z,1.35
2022-10-16T07:53:50.810Z,1.55
2022-10-16T07:56:19.395Z,1.52
2022-10-16T07:58:46.945Z,2.15
2022-10-16T08:01:16.738Z,1.73
2022-10-16T08:03:51.520Z,1.88
2022-10-16T08:06:23.475Z,1.80
2022-10-16T08:08:53.797Z,2.08
2022-10-16T08:11:20.642Z,2.58
2022-10-16T08:13:47.521Z,1.92
2022-10-16T08:16:14.677Z,1.70
2022-10-16T08:18:42.065Z,1.55
2022-10-16T08:21:20.143Z,1.92
2022-10-16T08:23:51.530Z,2.13
2022-10-16T08:26:24.833Z,1.70
2022-10-16T08:28:52.987Z,1.77
2022-10-16T08:31:21.094Z,2.10
2022-10-16T08:33:48.914Z,1.70
2022-10-16T08:36:17.370Z,1.90
2022-10-16T08:38:44.269Z,1.73
2022-10-16T08:41:13.969Z,1.77
2022-10-16T08:44:01.596Z,1.60
2022-10-16T08:46:57.919Z,1.88
2022-10-16T08:49:25.852Z,1.90
2022-10-16T08:51:53.433Z,1.60
2022-10-16T08:54:46.272Z,1.95
2022-10-16T08:57:24.230Z,1.45
2022-10-16T08:59:52.743Z,1.70
2022-10-16T09:02:36.761Z,1.77
2022-10-16T09:05:12.711Z,1.70
2022-10-16T09:07:54.612Z,1.77
2022-10-16T09:10:40.802Z,1.75
2022-10-16T09:13:31.058Z,1.92
2022-10-16T09:16:31.530Z,1.73
2022-10-16T09:19:10.887Z,1.80
2022-10-16T09:21:42.810Z,2.28
2022-10-16T09:24:29.325Z,1.85
2022-10-16T09:26:56.528Z,1.92
2022-10-16T09:29:26.363Z,1.60
2022-10-16T09:31:56.472Z,2.13
2022-10-16T09:34:35.948Z,1.83
2022-10-16T09:37:10.151Z,1.50
2022-10-16T09:39:48.879Z,1.67
2022-10-16T09:42:37.693Z,1.40
2022-10-16T09:45:05.572Z,1.80
2022-10-16T09:47:33.281Z,1.92
2022-10-16T09:50:22.197Z,1.30
2022-10-16T09:52:49.125Z,1.77
2022-10-16T09:55:19.545Z,1.55
2022-10-16T09:57:56.226Z,1.20
2022-10-16T10:00:25.623Z,1.45
2022-10-16T10:05:41.568Z,1.17
2022-10-16T10:08:19.365Z,1.50
2022-10-16T10:10:49.915Z,1.40
2022-10-16T10:13:28.379Z,1.50
2022-10-16T10:15:55.331Z,1.33
2022-10-16T10:18:25.116Z,1.65
2022-10-16T10:21:01.705Z,1.38
2022-10-16T10:23:31.223Z,1.50
2022-10-16T10:26:14.037Z,1.50
2022-10-16T10:29:22.505Z,1.27
2022-10-16T10:32:11.544Z,1.23
2022-10-16T10:34:47.711Z,1.25
2022-10-16T10:37:39.059Z,1.42
2022-10-16T10:40:29.755Z,1.42
2022-10-16T10:43:05.880Z,2.30
2022-10-16T10:45:46.377Z,1.50
2022-10-16T10:48:50.567Z,1.40
2022-10-16T10:51:29.577Z,1.38
2022-10-16T10:54:24.579Z,1.20
2022-10-16T10:57:09.133Z,1.40
2022-10-16T10:59:57.331Z,1.20
2022-10-16T11:02:56.638Z,1.05
2022-10-16T11:05:42.399Z,1.23
2022-10-16T11:08:19.123Z,1.17
2022-10-16T11:10:54.847Z,1.05
2022-10-16T11:13:44.938Z,1.05
2022-10-16T11:16:24.931Z,1.00
2022-10-16T11:19:00.079Z,1.25
2022-10-16T11:21:31.776Z,0.85
2022-10-16T11:24:07.736Z,0.93
2022-10-16T11:26:41.183Z,1.13
2022-10-16T11:29:19.499Z,0.93
2022-10-16T11:31:54.935Z,0.90
2022-10-16T11:34:43.072Z,1.00
2022-10-16T11:37:19.762Z,1.20
2022-10-16T11:39:47.948Z,1.13
2022-10-16T11:42:30.722Z,1.42
2022-10-16T11:45:26.010Z,1.20
2022-10-16T11:48:03.849Z,1.20
2022-10-16T11:50:41.051Z,1.10
2022-10-16T11:53:49.129Z,1.20
2022-10-16T11:56:21.656Z,1.10
2022-10-16T11:59:13.972Z,1.10
2022-10-16T12:02:26.907Z,1.02
2022-10-16T12:05:17.972Z,1.10
2022-10-16T12:08:06.756Z,1.13
2022-10-16T12:13:43.448Z,1.83
2022-10-16T12:16:13.372Z,1.67
2022-10-16T12:18:43.688Z,1.40
2022-10-16T12:21:14.626Z,1.40
2022-10-16T12:23:53.485Z,1.80
2022-10-16T12:26:42.893Z,1.10
2022-10-16T12:29:40.002Z,1.90
2022-10-16T12:32:48.471Z,1.58
2022-10-16T12:35:30.149Z,1.70
2022-10-16T12:38:09.125Z,1.60
2022-10-16T12:40:39.146Z,2.00
2022-10-16T12:43:23.814Z,2.17
2022-10-16T12:46:10.841Z,1.80
2022-10-16T12:48:55.412Z,1.85
2022-10-16T12:51:37.899Z,1.38
2022-10-16T12:54:20.307Z,1.05
2022-10-16T12:57:02.273Z,1.17
2022-10-16T12:59:44.181Z,1.27
2022-10-16T13:02:36.017Z,1.40
2022-10-16T13:05:12.043Z,1.23
2022-10-16T13:07:57.011Z,1.10
2022-10-16T13:11:03.824Z,1.05
2022-10-16T13:13:56.578Z,1.05
2022-10-16T13:16:54.001Z,1.00
2022-10-16T13:19:45.202Z,0.90
2022-10-16T13:22:31.345Z,1.10
2022-10-16T13:25:19.325Z,1.00
2022-10-16T13:28:04.272Z,1.00
2022-10-16T13:30:42.000Z,1.25
2022-10-16T13:33:18.676Z,1.10
2022-10-16T13:35:55.460Z,1.02
2022-10-16T13:38:33.167Z,1.10
2022-10-16T13:41:12.925Z,1.13
2022-10-16T13:43:47.228Z,1.15
2022-10-16T13:46:19.807Z,1.20
2022-10-16T13:49:02.074Z,1.23
2022-10-16T13:51:30.369Z,1.25
2022-10-16T13:53:58.570Z,1.02
2022-10-16T13:56:34.139Z,1.30
2022-10-16T13:59:07.133Z,1.17
2022-10-16T14:01:44.854Z,1.30
2022-10-16T14:04:15.092Z,2.15
2022-10-16T14:06:46.097Z,0.93
2022-10-16T14:09:31.323Z,1.25
2022-10-16T14:12:03.794Z,1.40
2022-10-16T14:14:42.586Z,1.00
2022-10-16T14:17:27.697Z,1.05
2022-10-16T14:20:04.156Z,1.15
2022-10-16T14:22:43.700Z,1.50
2022-10-16T14:25:22.868Z,1.42
2022-10-16T14:28:16.134Z,1.30
2022-10-16T14:31:01.196Z,2.17
2022-10-16T14:33:31.046Z,1.35
2022-10-16T14:36:05.439Z,0.90
2022-10-16T14:38:33.811Z,0.98
2022-10-16T14:41:02.180Z,1.15
2022-10-16T14:43:39.123Z,0.90
2022-10-16T14:46:16.007Z,1.35
2022-10-16T14:48:45.347Z,1.10
2022-10-16T14:51:18.017Z,1.20
2022-10-16T14:53:44.825Z,2.25
2022-10-16T14:56:23.285Z,2.00
2022-10-16T14:58:52.337Z,1.50
2022-10-16T15:01:19.810Z,1.40
2022-10-16T15:03:47.077Z,1.30
2022-10-16T15:06:16.437Z,1.17
2022-10-16T15:08:44.344Z,1.50
2022-10-16T15:11:15.580Z,1.52
2022-10-16T15:13:42.813Z,2.20
2022-10-16T15:16:16.240Z,2.35
2022-10-16T15:18:43.612Z,1.98
2022-10-16T15:21:27.519Z,1.70
2022-10-16T15:23:54.710Z,1.75
2022-10-16T15:26:21.480Z,1.50
2022-10-16T15:28:48.327Z,1.60
2022-10-16T15:31:15.234Z,1.35
2022-10-16T15:33:42.386Z,1.40
2022-10-16T15:36:09.449Z,1.52
2022-10-16T15:38:36.518Z,1.40
2022-10-16T15:41:03.629Z,1.80
2022-10-16T15:43:30.470Z,1.30
2022-10-16T15:46:12.436Z,1.58
2022-10-16T15:48:39.451Z,1.35
2022-10-16T15:51:08.371Z,1.17
2022-10-16T15:53:35.952Z,1.48
2022-10-16T15:56:07.685Z,1.25
2022-10-16T15:58:35.156Z,1.40
2022-10-16T16:01:03.054Z,1.65
2022-10-16T16:03:30.199Z,1.65
2022-10-16T16:05:58.096Z,1.40
2022-10-16T16:08:25.016Z,1.42
2022-10-16T16:11:12.652Z,1.40
2022-10-16T16:13:40.001Z,1.27
2022-10-16T16:16:12.300Z,1.38
2022-10-16T16:18:40.122Z,1.50
2022-10-16T16:21:07.501Z,1.45
2022-10-16T16:23:34.745Z,1.73
2022-10-16T16:26:25.064Z,1.55
2022-10-16T16:28:52.023Z,2.00
2022-10-16T16:31:19.073Z,1.65
2022-10-16T16:33:46.084Z,2.05
2022-10-16T16:36:15.897Z,2.10
2022-10-16T16:38:43.022Z,2.10
2022-10-16T16:41:26.443Z,2.22
2022-10-16T16:43:54.964Z,2.30
2022-10-16T16:46:22.773Z,2.33
2022-10-16T16:48:54.616Z,1.98
2022-10-16T16:51:21.535Z,2.30
2022-10-16T16:53:53.759Z,1.83
2022-10-16T16:56:23.436Z,2.10
2022-10-16T16:58:53.191Z,2.03
2022-10-16T17:01:21.631Z,2.03
2022-10-16T17:03:53.183Z,1.95
2022-10-16T17:06:27.541Z,1.70
2022-10-16T17:08:54.678Z,2.27
2022-10-16T17:11:27.503Z,2.13
2022-10-16T17:13:57.129Z,4.88
2022-10-16T17:16:34.243Z,4.93
2022-10-16T17:19:04.039Z,3.45
2022-10-16T17:21:33.065Z,3.45
2022-10-16T17:24:01.938Z,2.58
2022-10-16T17:26:29.989Z,3.40
2022-10-16T17:29:00.590Z,2.63
2022-10-16T17:31:34.944Z,2.53
2022-10-16T17:34:04.991Z,4.80
2022-10-16T17:36:36.076Z,4.10
2022-10-16T17:39:10.985Z,3.50
2022-10-16T17:41:38.543Z,2.45
2022-10-16T17:44:07.461Z,2.70
2022-10-16T17:46:38.386Z,4.38
2022-10-16T17:49:09.905Z,2.90
2022-10-16T17:51:36.843Z,2.75
2022-10-16T17:54:03.816Z,2.85
2022-10-16T17:56:31.605Z,2.47
2022-10-16T17:59:01.981Z,2.30
2022-10-16T18:01:40.596Z,2.80
2022-10-16T18:04:15.052Z,2.60
2022-10-16T18:06:44.075Z,3.28
2022-10-16T18:09:15.217Z,3.25
2022-10-16T18:11:42.092Z,3.25
2022-10-16T18:14:09.130Z,3.97
2022-10-16T18:16:37.029Z,4.10
2022-10-16T18:19:03.975Z,3.80
2022-10-16T18:21:30.951Z,5.47
2022-10-16T18:24:01.489Z,13.00
2022-10-16T18:26:28.856Z,3.08
2022-10-16T18:28:57.602Z,2.60
2022-10-16T18:31:26.760Z,2.67
2022-10-16T18:33:56.007Z,2.85
2022-10-16T18:36:32.821Z,3.20
2022-10-16T18:39:02.021Z,3.00
2022-10-16T18:41:29.106Z,3.22
2022-10-16T18:43:59.282Z,3.10
2022-10-16T18:46:26.693Z,2.88
2022-10-16T18:48:54.800Z,3.58
2022-10-16T18:51:26.201Z,3.33
2022-10-16T18:54:00.272Z,2.70
2022-10-16T18:56:30.481Z,3.03
2022-10-16T18:59:00.872Z,3.60
2022-10-16T19:01:30.383Z,3.50
2022-10-16T19:04:13.873Z,2.95
2022-10-16T19:06:47.105Z,3.63
2022-10-16T19:09:16.859Z,3.45
2022-10-16T19:11:44.708Z,3.42
2022-10-16T19:14:14.094Z,3.58
2022-10-16T19:16:43.190Z,3.20
2022-10-16T19:19:18.470Z,3.63
2022-10-16T19:21:47.945Z,3.35
2022-10-16T19:24:16.718Z,3.42
2022-10-16T19:26:44.078Z,4.22
2022-10-16T19:29:11.977Z,3.58
2022-10-16T19:31:39.907Z,3.60
2022-10-16T19:34:07.675Z,3.60
2022-10-16T19:36:37.111Z,3.63
2022-10-16T19:39:08.628Z,3.90
2022-10-16T19:41:37.215Z,4.00
2022-10-16T19:44:08.306Z,3.33
2022-10-16T19:46:36.136Z,3.33
2022-10-16T19:49:06.463Z,3.70
2022-10-16T19:51:34.294Z,3.50
2022-10-16T19:54:05.201Z,3.97
2022-10-16T19:56:33.941Z,4.25
2022-10-16T19:59:01.404Z,4.03
2022-10-16T20:01:31.610Z,4.35
2022-10-16T20:03:59.030Z,4.18
2022-10-16T20:06:26.676Z,3.53
2022-10-16T20:08:55.281Z,3.40
2022-10-16T20:11:26.441Z,4.30
2022-10-16T20:13:53.692Z,4.18
2022-10-16T20:16:21.153Z,4.18
2022-10-16T20:18:51.249Z,4.53
2022-10-16T20:21:29.853Z,4.18
2022-10-16T20:23:57.814Z,3.95
2022-10-16T20:26:26.197Z,4.18
2022-10-16T20:28:54.521Z,3.78
2022-10-16T20:31:25.686Z,4.82
2022-10-16T20:33:55.272Z,4.22
2022-10-16T20:36:24.777Z,4.72
2022-10-16T20:38:52.029Z,4.90
2022-10-16T20:41:19.542Z,3.85
2022-10-16T20:43:48.573Z,3.95
2022-10-16T20:46:20.484Z,3.67
2022-10-16T20:48:47.850Z,3.80
2022-10-16T20:51:24.710Z,3.90
2022-10-16T20:54:04.256Z,3.97
2022-10-16T20:56:34.763Z,4.18
2022-10-16T20:59:01.612Z,3.25
2022-10-16T21:01:31.205Z,3.50
2022-10-16T21:04:02.095Z,5.72
2022-10-16T21:06:32.536Z,4.57
2022-10-16T21:09:04.232Z,3.60
2022-10-16T21:11:34.887Z,3.65
2022-10-16T21:14:05.864Z,3.58
2022-10-16T21:16:34.525Z,3.50
2022-10-16T21:19:01.492Z,3.30
2022-10-16T21:21:32.360Z,3.40
2022-10-16T21:24:00.667Z,3.95
2022-10-16T21:26:29.143Z,3.88
2022-10-16T21:29:02.117Z,3.65
2022-10-16T21:31:30.182Z,3.30
2022-10-16T21:33:57.769Z,3.63
2022-10-16T21:36:28.744Z,3.70
2022-10-16T21:38:56.773Z,3.58
2022-10-16T21:41:27.365Z,3.42
2022-10-16T21:43:56.467Z,4.32
2022-10-16T21:46:28.208Z,3.63
2022-10-16T21:49:00.849Z,2.92
2022-10-16T21:51:34.047Z,3.47
2022-10-16T21:54:02.294Z,3.50
2022-10-16T21:56:29.408Z,3.45
2022-10-16T21:58:56.464Z,2.70
2022-10-16T22:01:25.937Z,3.00
2022-10-16T22:03:53.095Z,2.30
2022-10-16T22:06:24.391Z,2.90
2022-10-16T22:08:53.312Z,2.40
2022-10-16T22:11:27.962Z,2.10
2022-10-16T22:13:57.051Z,2.05
2022-10-16T22:16:27.160Z,2.25
2022-10-16T22:18:56.353Z,1.85
2022-10-16T22:21:24.318Z,1.63
2022-10-16T22:23:51.923Z,1.50
2022-10-16T22:26:18.785Z,1.60
2022-10-16T22:28:45.776Z,2.03
2022-10-16T22:31:14.633Z,1.70
2022-10-16T22:33:42.231Z,2.00
2022-10-16T22:36:13.462Z,2.25
2022-10-16T22:38:40.664Z,2.00
2022-10-16T22:41:13.019Z,2.20
2022-10-16T22:43:44.145Z,2.40
2022-10-16T22:46:18.454Z,2.38
2022-10-16T22:48:45.598Z,2.40
2022-10-16T22:51:17.398Z,2.47
2022-10-16T22:53:46.735Z,2.83
2022-10-16T22:56:15.512Z,2.65
2022-10-16T22:58:43.469Z,2.38
2022-10-16T23:01:30.901Z,2.40
2022-10-16T23:03:57.971Z,2.80
2022-10-16T23:06:25.139Z,2.40
2022-10-16T23:08:59.073Z,2.15
2022-10-16T23:11:26.983Z,2.17
2022-10-16T23:13:53.950Z,2.78
2022-10-16T23:16:23.113Z,2.10
2022-10-16T23:18:50.832Z,2.17
2022-10-16T23:21:22.005Z,2.10
2022-10-16T23:23:51.886Z,1.60
2022-10-16T23:26:23.837Z,1.85
2022-10-16T23:28:50.984Z,1.40
2022-10-16T23:31:18.819Z,1.88
2022-10-16T23:33:45.701Z,2.25
2022-10-16T23:36:17.096Z,1.88
2022-10-16T23:38:44.926Z,2.03
2022-10-16T23:41:11.995Z,1.80
2022-10-16T23:43:40.560Z,1.45
2022-10-16T23:46:10.067Z,1.75
2022-10-16T23:48:40.270Z,1.65
2022-10-16T23:51:08.842Z,2.03
2022-10-16T23:53:35.970Z,1.88
2022-10-16T23:56:02.802Z,1.55
2022-10-16T23:58:29.609Z,1.80
